Time;durP1;ratioP1;P1;durP2;ratioP2;P2;SDS_P1;SDS_P2;PMS_P1;PMS_P2;Temp;Humidity;BMP_temperature;BMP_pressure;BME280_temperature;BME280_humidity;BME280_pressure;Samples;Min_cycle;Max_cycle;Signal;HPM_P1;HPM_P2
2023/09/09 00:01:12;;;;;;;14.95;4.80;;;;;;;27.62;48.02;101294.78;5073135;28;20112;-63
2023/09/09 00:03:38;;;;;;;4.80;3.70;;;;;;;27.61;47.64;101303.31;5073252;28;20048;-66
2023/09/09 00:06:21;;;;;;;5.90;3.85;;;;;;;27.57;47.49;101296.56;5075205;28;20028;-65
2023/09/09 00:08:47;;;;;;;4.47;3.65;;;;;;;27.54;47.10;101297.84;5074607;28;20560;-64
2023/09/09 00:11:12;;;;;;;10.70;5.70;;;;;;;27.52;47.60;101308.25;5073217;28;20127;-64
2023/09/09 00:13:37;;;;;;;6.53;5.30;;;;;;;27.50;47.50;101307.63;5072907;28;20040;-64
2023/09/09 00:16:04;;;;;;;8.25;5.50;;;;;;;27.47;48.34;101307.28;5073293;28;20158;-64
2023/09/09 00:18:30;;;;;;;7.78;5.82;;;;;;;27.45;47.70;101307.47;5073583;28;20033;-63
2023/09/09 00:20:55;;;;;;;7.30;6.38;;;;;;;27.44;48.51;101305.81;5073080;28;20076;-63
2023/09/09 00:23:21;;;;;;;9.45;6.07;;;;;;;27.41;47.39;101297.16;5072854;28;20040;-64
2023/09/09 00:25:47;;;;;;;9.82;7.13;;;;;;;27.40;48.33;101303.69;5074125;28;20025;-64
2023/09/09 00:28:13;;;;;;;9.25;6.68;;;;;;;27.37;48.37;101301.41;5074275;28;20029;-64
2023/09/09 00:30:39;;;;;;;10.50;6.18;;;;;;;27.34;47.68;101299.94;5074257;28;20056;-63
2023/09/09 00:33:07;;;;;;;17.08;7.15;;;;;;;27.25;48.40;101284.78;5056006;28;20086;-64
2023/09/09 00:35:32;;;;;;;11.65;7.30;;;;;;;27.33;48.46;101297.44;5072923;28;20037;-63
2023/09/09 00:37:58;;;;;;;11.38;7.35;;;;;;;27.33;48.19;101300.19;5072528;28;20071;-63
2023/09/09 00:40:23;;;;;;;8.57;5.53;;;;;;;27.31;47.78;101294.88;5073724;28;20095;-63
2023/09/09 00:42:49;;;;;;;5.43;3.88;;;;;;;27.29;48.04;101287.94;5072561;28;20040;-63
2023/09/09 00:45:15;;;;;;;10.25;6.03;;;;;;;27.24;48.28;101285.03;5073723;28;20028;-63
2023/09/09 00:47:40;;;;;;;11.23;6.35;;;;;;;27.22;48.22;101288.00;5073804;28;20033;-64
2023/09/09 00:50:10;;;;;;;12.68;6.57;;;;;;;27.20;47.69;101290.13;5073905;28;20043;-63
2023/09/09 00:52:38;;;;;;;9.93;6.95;;;;;;;27.18;48.66;101293.13;5073517;28;20097;-63
2023/09/09 00:55:05;;;;;;;14.35;6.95;;;;;;;27.17;47.72;101283.19;5072383;28;20115;-63
2023/09/09 00:57:32;;;;;;;12.93;8.10;;;;;;;27.15;48.46;101279.81;5072631;28;20043;-64
2023/09/09 00:59:57;;;;;;;10.73;6.65;;;;;;;27.13;48.27;101276.47;5072854;28;20037;-63
2023/09/09 01:02:22;;;;;;;8.27;5.95;;;;;;;27.14;48.61;101291.88;5072086;28;20090;-65
2023/09/09 01:04:49;;;;;;;10.32;6.50;;;;;;;27.15;48.40;101282.56;5073181;28;20028;-64
2023/09/09 01:07:14;;;;;;;8.65;5.90;;;;;;;27.12;48.91;101287.69;5072201;28;20489;-65
2023/09/09 01:09:40;;;;;;;7.50;5.72;;;;;;;27.12;48.41;101288.53;5073157;28;20036;-63
2023/09/09 01:12:11;;;;;;;7.97;4.97;;;;;;;27.09;48.46;101283.47;5071979;28;20044;-63
2023/09/09 01:14:39;;;;;;;7.72;5.03;;;;;;;27.06;48.53;101286.69;5072264;28;20093;-63
2023/09/09 01:17:05;;;;;;;9.88;6.55;;;;;;;27.05;48.42;101284.97;5072095;28;20032;-63
2023/09/09 01:19:31;;;;;;;12.88;6.80;;;;;;;27.04;49.16;101286.06;5071865;28;20024;-63
2023/09/09 01:22:03;;;;;;;10.50;7.05;;;;;;;27.02;48.78;101293.72;5071955;28;20396;-64
2023/09/09 01:24:28;;;;;;;13.30;8.40;;;;;;;27.03;48.64;101292.63;5071383;28;20047;-63
2023/09/09 01:26:54;;;;;;;12.20;6.50;;;;;;;27.02;48.90;101287.38;5072130;28;20048;-63
2023/09/09 01:29:19;;;;;;;11.30;7.35;;;;;;;27.02;48.45;101288.22;5071845;28;20077;-63
2023/09/09 01:31:44;;;;;;;12.57;6.40;;;;;;;26.99;48.76;101282.31;5055170;28;20040;-64
2023/09/09 01:34:10;;;;;;;15.05;6.57;;;;;;;26.99;48.70;101285.06;5073119;28;20052;-64
2023/09/09 01:36:35;;;;;;;8.73;6.00;;;;;;;26.98;48.74;101284.22;5073061;28;20028;-63
2023/09/09 01:39:00;;;;;;;11.20;6.50;;;;;;;27.00;48.55;101290.31;5073376;28;20037;-63
2023/09/09 01:41:26;;;;;;;14.07;6.50;;;;;;;26.98;48.39;101295.22;5073070;28;20416;-64
2023/09/09 01:43:51;;;;;;;9.82;7.22;;;;;;;26.97;48.29;101301.78;5054665;28;20033;-63
2023/09/09 01:46:17;;;;;;;10.95;6.72;;;;;;;26.95;48.91;101303.91;5071304;28;20123;-63
2023/09/09 01:48:42;;;;;;;9.45;6.25;;;;;;;26.97;48.89;101296.28;5071529;28;20036;-63
2023/09/09 01:51:07;;;;;;;11.50;6.68;;;;;;;26.93;48.33;101286.81;5071652;28;20035;-63
2023/09/09 01:53:33;;;;;;;10.35;6.75;;;;;;;26.93;48.43;101295.06;5072880;28;20054;-63
2023/09/09 01:55:58;;;;;;;10.55;6.97;;;;;;;26.91;48.26;101297.16;5072805;28;20120;-63
2023/09/09 01:58:24;;;;;;;12.88;6.32;;;;;;;26.90;48.09;101300.16;5073449;28;20049;-63
2023/09/09 02:00:49;;;;;;;8.00;6.88;;;;;;;26.87;48.57;101290.44;5075555;28;20036;-63
2023/09/09 02:03:16;;;;;;;13.00;5.93;;;;;;;26.86;47.92;101290.66;5060132;28;20111;-63
2023/09/09 02:05:41;;;;;;;9.55;6.45;;;;;;;26.85;48.32;101289.84;5076637;28;20090;-63
2023/09/09 02:08:07;;;;;;;13.20;6.75;;;;;;;26.84;48.34;101290.91;5077459;28;20028;-63
2023/09/09 02:10:32;;;;;;;12.20;7.05;;;;;;;26.82;48.56;101290.28;5076421;28;20033;-63
2023/09/09 02:12:58;;;;;;;14.02;6.50;;;;;;;26.78;48.96;101291.78;5058737;28;20036;-63
2023/09/09 02:15:24;;;;;;;9.05;6.07;;;;;;;26.76;48.18;101293.06;5073245;28;20387;-63
2023/09/09 02:17:49;;;;;;;13.63;7.13;;;;;;;26.74;48.56;101298.78;5071974;28;20040;-63
2023/09/09 02:20:14;;;;;;;8.75;6.25;;;;;;;26.74;48.47;101296.03;5071172;28;20036;-64
2023/09/09 02:22:40;;;;;;;9.10;6.68;;;;;;;26.72;48.70;101298.16;5073532;28;20119;-64
2023/09/09 02:25:07;;;;;;;10.20;6.45;;;;;;;26.72;48.53;101292.66;5072711;28;20039;-64
2023/09/09 02:27:32;;;;;;;9.45;6.47;;;;;;;26.71;49.28;101295.63;5071360;28;20033;-64
2023/09/09 02:29:58;;;;;;;12.80;6.20;;;;;;;26.69;48.80;101295.84;5072101;28;20028;-64
2023/09/09 02:32:23;;;;;;;12.85;6.47;;;;;;;26.64;48.88;101295.69;5072607;28;20120;-64
2023/09/09 02:34:49;;;;;;;12.52;6.53;;;;;;;26.63;48.76;101299.50;5071268;28;20515;-64
2023/09/09 02:37:19;;;;;;;9.30;6.55;;;;;;;26.60;49.46;101295.28;5072373;28;20120;-64
2023/09/09 02:39:48;;;;;;;11.55;6.68;;;;;;;26.57;49.18;101300.41;5070993;28;20031;-64
2023/09/09 02:42:16;;;;;;;9.05;5.70;;;;;;;26.52;48.48;101290.06;5075971;28;20048;-65
2023/09/09 02:44:42;;;;;;;11.70;6.65;;;;;;;26.49;48.82;101289.69;5058879;28;20041;-64
2023/09/09 02:47:08;;;;;;;9.45;6.15;;;;;;;26.47;48.37;101294.53;5074902;28;20052;-64
2023/09/09 02:49:35;;;;;;;9.98;6.00;;;;;;;26.45;48.57;101296.66;5074548;28;20032;-65
2023/09/09 02:52:01;;;;;;;11.18;5.93;;;;;;;26.42;48.64;101297.09;5074575;28;20039;-64
2023/09/09 02:54:27;;;;;;;11.18;5.97;;;;;;;26.37;49.04;101289.53;5075752;28;20123;-64
2023/09/09 02:56:52;;;;;;;6.95;5.65;;;;;;;26.35;49.17;101293.56;5075897;28;20053;-64
2023/09/09 02:59:17;;;;;;;12.32;6.70;;;;;;;26.32;48.85;101289.38;5075855;28;20040;-64
2023/09/09 03:01:43;;;;;;;7.90;5.18;;;;;;;26.32;49.37;101296.75;5075863;28;20035;-64
2023/09/09 03:04:09;;;;;;;11.30;4.13;;;;;;;26.28;49.28;101290.00;5074103;28;20075;-64
2023/09/09 03:06:34;;;;;;;8.88;5.35;;;;;;;26.27;48.70;101288.34;5074388;28;20025;-64
2023/09/09 03:08:59;;;;;;;9.45;6.90;;;;;;;26.25;49.15;101295.94;5074426;28;20116;-64
2023/09/09 03:11:26;;;;;;;15.48;6.03;;;;;;;26.24;49.28;101294.28;5076040;28;20527;-64
2023/09/09 03:13:51;;;;;;;10.43;6.03;;;;;;;26.24;49.50;101299.78;5075496;28;20048;-64
2023/09/09 03:16:17;;;;;;;11.63;5.95;;;;;;;26.22;48.91;101297.22;5075784;28;20480;-64
2023/09/09 03:18:42;;;;;;;13.82;5.80;;;;;;;26.23;48.97;101298.06;5074189;28;20107;-64
2023/09/09 03:21:07;;;;;;;4.78;4.28;;;;;;;26.22;49.14;101301.88;5073965;28;20508;-64
2023/09/09 03:23:34;;;;;;;6.18;3.35;;;;;;;26.19;48.69;101313.28;5075440;28;20381;-64
2023/09/09 03:25:59;;;;;;;4.15;3.58;;;;;;;26.15;49.02;101306.56;5075269;28;20029;-64
2023/09/09 03:28:24;;;;;;;12.48;4.10;;;;;;;26.11;48.91;101310.78;5073915;28;20051;-65
2023/09/09 03:30:54;;;;;;;5.20;4.03;;;;;;;26.07;49.38;101304.06;5074807;28;20060;-65
2023/09/09 03:33:20;;;;;;;8.95;4.70;;;;;;;26.03;48.85;101304.50;5075176;28;20128;-64
2023/09/09 03:35:45;;;;;;;10.27;5.05;;;;;;;25.98;48.67;101297.97;5073944;28;20457;-65
2023/09/09 03:38:10;;;;;;;5.57;4.47;;;;;;;25.98;49.25;101306.19;5074168;28;20087;-64
2023/09/09 03:40:36;;;;;;;7.88;4.95;;;;;;;25.96;49.21;101306.41;5073938;28;20064;-64
2023/09/09 03:43:01;;;;;;;10.05;5.35;;;;;;;25.95;49.33;101307.47;5075131;28;20078;-64
2023/09/09 03:45:26;;;;;;;10.88;5.68;;;;;;;25.92;49.16;101304.31;5075046;28;20120;-65
2023/09/09 03:47:52;;;;;;;6.30;5.13;;;;;;;25.92;49.33;101307.91;5075081;28;20115;-64
2023/09/09 03:50:17;;;;;;;7.07;5.47;;;;;;;25.90;49.43;101309.19;5074833;28;20064;-64
2023/09/09 03:52:42;;;;;;;8.25;4.90;;;;;;;25.87;49.73;101305.00;5073623;28;20111;-64
2023/09/09 03:55:08;;;;;;;7.20;4.65;;;;;;;25.87;49.08;101307.72;5074853;28;20060;-64
2023/09/09 03:57:33;;;;;;;4.97;4.28;;;;;;;25.82;48.75;101302.06;5074563;28;20496;-64
2023/09/09 03:59:59;;;;;;;15.65;5.22;;;;;;;25.79;49.08;101305.22;5073488;28;20025;-64
2023/09/09 04:02:24;;;;;;;10.48;5.15;;;;;;;25.73;49.15;101297.88;5073463;28;20082;-64
2023/09/09 04:04:49;;;;;;;8.82;4.78;;;;;;;25.76;49.69;101315.81;5073529;28;20044;-64
2023/09/09 04:07:15;;;;;;;6.43;4.63;;;;;;;25.73;49.50;101308.84;5073334;28;20547;-64
2023/09/09 04:09:41;;;;;;;9.77;4.20;;;;;;;25.73;49.88;101302.50;5074398;28;20044;-65
2023/09/09 04:12:08;;;;;;;8.00;5.03;;;;;;;25.72;49.60;101307.16;5074313;28;20036;-64
2023/09/09 04:14:35;;;;;;;10.55;5.25;;;;;;;25.72;49.63;101311.78;5074427;28;20055;-64
2023/09/09 04:17:00;;;;;;;10.30;5.50;;;;;;;25.71;49.15;101304.63;5074645;28;20029;-64
2023/09/09 04:19:27;;;;;;;7.40;4.90;;;;;;;25.68;49.60;101311.41;5074468;28;20025;-64
2023/09/09 04:21:52;;;;;;;12.00;7.40;;;;;;;25.68;49.49;101311.41;5074012;28;20040;-64
2023/09/09 04:24:17;;;;;;;9.77;6.60;;;;;;;25.69;49.45;101302.09;5074335;28;20446;-64
2023/09/09 04:26:43;;;;;;;10.68;5.93;;;;;;;25.69;49.33;101309.47;5073991;28;20029;-64
2023/09/09 04:29:08;;;;;;;7.28;3.78;;;;;;;25.66;49.61;101302.53;5074509;28;20032;-64
2023/09/09 04:31:33;;;;;;;4.40;3.60;;;;;;;25.63;49.59;101302.13;5074641;28;20466;-64
2023/09/09 04:33:59;;;;;;;4.47;3.83;;;;;;;25.61;49.60;101307.81;5056103;28;20056;-64
2023/09/09 04:36:24;;;;;;;8.00;4.50;;;;;;;25.59;49.24;101309.94;5072920;28;20035;-64
2023/09/09 04:38:49;;;;;;;5.55;4.03;;;;;;;25.57;49.98;101309.31;5072685;28;20511;-64
2023/09/09 04:41:15;;;;;;;10.98;5.45;;;;;;;25.55;49.61;101308.69;5074028;28;20029;-64
2023/09/09 04:43:40;;;;;;;5.78;4.25;;;;;;;25.53;49.24;101308.06;5073686;28;20086;-64
2023/09/09 04:46:05;;;;;;;4.63;3.50;;;;;;;25.51;49.38;101318.41;5055692;28;20457;-64
2023/09/09 04:48:32;;;;;;;7.47;3.72;;;;;;;25.49;49.80;101315.00;5072348;28;20052;-64
2023/09/09 04:50:59;;;;;;;5.57;3.58;;;;;;;25.48;49.68;101316.09;5072297;28;20032;-64
2023/09/09 04:53:25;;;;;;;4.78;3.42;;;;;;;25.47;49.27;101319.88;5072439;28;20116;-64
2023/09/09 04:55:50;;;;;;;6.47;4.30;;;;;;;25.46;48.99;101318.19;5072671;28;20115;-63
2023/09/09 04:58:17;;;;;;;7.75;4.25;;;;;;;25.45;48.96;101319.22;5072747;28;20098;-63
2023/09/09 05:00:43;;;;;;;7.05;3.20;;;;;;;25.44;49.48;101314.78;5073537;28;20396;-63
2023/09/09 05:03:08;;;;;;;4.13;3.38;;;;;;;25.44;49.36;101325.75;5073259;28;20028;-65
2023/09/09 05:05:34;;;;;;;7.38;3.53;;;;;;;25.40;49.31;101322.59;5071394;28;20036;-64
2023/09/09 05:07:59;;;;;;;5.75;3.20;;;;;;;25.39;49.77;101328.31;5055314;28;20496;-63
2023/09/09 05:10:27;;;;;;;10.35;4.63;;;;;;;25.37;49.50;101324.94;5072121;28;20045;-63
2023/09/09 05:12:53;;;;;;;10.02;6.18;;;;;;;25.39;49.68;101328.31;5072344;28;20064;-63
2023/09/09 05:15:19;;;;;;;9.23;5.93;;;;;;;25.37;49.79;101316.72;5055425;28;20051;-63
2023/09/09 05:17:45;;;;;;;10.60;6.70;;;;;;;25.40;49.62;101321.78;5074043;28;20036;-63
2023/09/09 05:20:10;;;;;;;10.35;6.32;;;;;;;25.43;49.89;101329.59;5071458;28;20056;-63
2023/09/09 05:22:36;;;;;;;11.98;6.47;;;;;;;25.45;50.08;101333.81;5073914;28;20115;-63
2023/09/09 05:25:02;;;;;;;12.40;7.43;;;;;;;25.48;49.96;101335.31;5072901;28;20086;-64
2023/09/09 05:27:31;;;;;;;10.20;6.53;;;;;;;25.49;50.03;101336.97;5073627;28;20041;-66
2023/09/09 05:29:57;;;;;;;16.35;7.05;;;;;;;25.54;49.75;101331.72;5073743;28;20035;-64
2023/09/09 05:32:22;;;;;;;12.02;6.85;;;;;;;25.60;49.63;101340.97;5072302;28;20400;-64
2023/09/09 05:34:48;;;;;;;13.30;6.70;;;;;;;25.65;50.08;101338.44;5073833;28;20016;-63
2023/09/09 05:37:13;;;;;;;13.35;7.47;;;;;;;25.67;49.81;101337.16;5073508;28;20020;-63
2023/09/09 05:39:39;;;;;;;11.90;7.32;;;;;;;25.75;49.73;101339.66;5072931;28;20013;-64
2023/09/09 05:42:06;;;;;;;11.15;6.50;;;;;;;25.81;49.96;101338.78;5073112;28;20091;-64
2023/09/09 05:44:33;;;;;;;17.30;6.30;;;;;;;25.90;49.52;101343.00;5071421;28;20400;-63
2023/09/09 05:46:58;;;;;;;14.90;7.70;;;;;;;25.99;49.84;101340.84;5072870;28;20024;-64
2023/09/09 05:49:23;;;;;;;11.68;7.07;;;;;;;26.08;49.95;101344.16;5072449;28;20024;-62
2023/09/09 05:51:49;;;;;;;9.93;6.90;;;;;;;26.17;50.05;101341.00;5072579;28;20526;-64
2023/09/09 05:54:15;;;;;;;10.18;7.00;;;;;;;26.28;49.71;101339.47;5054740;28;20025;-62
2023/09/09 05:56:40;;;;;;;12.07;7.00;;;;;;;26.38;49.79;101351.66;5071469;28;20028;-63
2023/09/09 05:59:08;;;;;;;14.02;6.72;;;;;;;26.49;49.43;101339.97;5071432;28;20036;-63
2023/09/09 06:01:33;;;;;;;12.23;6.85;;;;;;;26.61;49.77;101346.44;5072921;28;20024;-62
2023/09/09 06:03:58;;;;;;;13.95;7.13;;;;;;;26.78;49.21;101351.41;5054845;28;20027;-64
2023/09/09 06:06:24;;;;;;;15.77;7.18;;;;;;;26.92;49.64;101358.53;5071393;28;20480;-63
2023/09/09 06:08:50;;;;;;;12.63;7.30;;;;;;;27.06;49.62;101349.94;5054555;28;20112;-63
2023/09/09 06:11:15;;;;;;;16.08;8.93;;;;;;;27.21;49.97;101348.75;5072282;28;20369;-64
2023/09/09 06:13:40;;;;;;;10.38;6.28;;;;;;;27.35;49.44;101358.59;5054464;28;20147;-64
2023/09/09 06:16:06;;;;;;;14.48;8.18;;;;;;;27.49;48.97;101360.16;5074776;28;20036;-63
2023/09/09 06:18:31;;;;;;;13.88;7.40;;;;;;;27.64;49.61;101355.13;5077016;28;20021;-64
2023/09/09 06:20:57;;;;;;;21.10;7.43;;;;;;;27.81;48.57;101367.22;5074787;28;20520;-63
2023/09/09 06:23:23;;;;;;;15.05;7.18;;;;;;;27.96;48.70;101361.34;5058695;28;20043;-64
2023/09/09 06:25:51;;;;;;;26.52;6.95;;;;;;;28.11;48.87;101365.41;5075285;28;20036;-63
2023/09/09 06:28:16;;;;;;;14.63;6.68;;;;;;;28.25;48.89;101364.16;5075220;28;20033;-63
2023/09/09 06:30:43;;;;;;;12.23;7.00;;;;;;;28.43;49.01;101377.06;5075001;28;20040;-64
2023/09/09 06:33:08;;;;;;;14.60;6.78;;;;;;;28.58;48.37;101374.75;5074329;28;20033;-63
2023/09/09 06:35:33;;;;;;;12.63;6.10;;;;;;;28.75;48.65;101383.22;5074924;28;20035;-63
2023/09/09 06:37:59;;;;;;;12.80;5.72;;;;;;;28.91;47.94;101377.03;5076191;28;20032;-63
2023/09/09 06:40:24;;;;;;;15.38;7.10;;;;;;;29.08;48.15;101380.78;5076029;28;20435;-64
2023/09/09 06:42:49;;;;;;;17.52;6.85;;;;;;;29.24;47.86;101377.34;5075003;28;20024;-63
2023/09/09 06:45:15;;;;;;;10.63;6.03;;;;;;;29.41;47.34;101374.72;5073215;28;20394;-63
2023/09/09 06:47:41;;;;;;;17.05;6.72;;;;;;;29.59;47.61;101376.53;5075771;28;20111;-63
2023/09/09 06:50:07;;;;;;;11.98;6.43;;;;;;;29.76;46.94;101377.50;5075844;28;20107;-63
2023/09/09 06:52:32;;;;;;;12.23;5.90;;;;;;;29.92;47.19;101376.75;5076101;28;20403;-63
2023/09/09 06:54:57;;;;;;;11.88;7.13;;;;;;;30.09;46.92;101374.94;5076041;28;20025;-63
2023/09/09 06:57:23;;;;;;;11.63;5.97;;;;;;;30.26;46.55;101378.59;5075821;28;20164;-63
2023/09/09 06:59:48;;;;;;;10.82;6.32;;;;;;;30.42;46.38;101386.16;5074320;28;20113;-63
2023/09/09 07:02:13;;;;;;;12.15;6.18;;;;;;;30.61;45.97;101378.47;5075673;28;20048;-65
2023/09/09 07:04:39;;;;;;;9.95;5.70;;;;;;;30.76;46.28;101377.94;5074366;28;20028;-64
2023/09/09 07:07:04;;;;;;;18.08;6.38;;;;;;;30.90;45.98;101382.91;5057519;28;20098;-64
2023/09/09 07:09:30;;;;;;;11.25;5.50;;;;;;;31.10;44.97;101388.00;5075661;28;20116;-64
2023/09/09 07:11:58;;;;;;;12.25;6.65;;;;;;;31.26;45.15;101389.94;5075501;28;20024;-63
2023/09/09 07:14:23;;;;;;;9.65;6.13;;;;;;;31.44;44.69;101389.66;5074651;28;20029;-64
2023/09/09 07:16:49;;;;;;;12.50;6.05;;;;;;;31.60;44.29;101391.59;5074355;28;20039;-65
2023/09/09 07:19:14;;;;;;;7.53;4.70;;;;;;;31.71;44.63;101387.88;5075451;28;20025;-65
2023/09/09 07:21:39;;;;;;;9.75;5.30;;;;;;;31.90;44.53;101398.69;5074155;28;20052;-65
2023/09/09 07:24:05;;;;;;;10.32;5.97;;;;;;;32.02;44.26;101385.56;5075607;28;20533;-65
2023/09/09 07:26:31;;;;;;;9.98;5.40;;;;;;;32.19;43.59;101391.91;5074718;28;20039;-65
2023/09/09 07:28:57;;;;;;;9.43;5.22;;;;;;;32.33;43.16;101395.94;5073876;28;20396;-65
2023/09/09 07:31:22;;;;;;;9.48;5.65;;;;;;;32.42;43.16;101396.31;5074393;28;20036;-64
2023/09/09 07:33:48;;;;;;;13.32;5.63;;;;;;;32.55;43.69;101388.44;5057173;28;20029;-65
2023/09/09 07:36:13;;;;;;;11.32;5.85;;;;;;;32.73;43.00;101393.66;5073815;28;20028;-65
2023/09/09 07:38:39;;;;;;;9.20;5.68;;;;;;;32.90;43.08;101398.25;5057027;28;20024;-66
2023/09/09 07:41:04;;;;;;;15.32;6.30;;;;;;;33.10;41.85;101404.03;5073507;28;20512;-65
2023/09/09 07:43:29;;;;;;;16.23;6.75;;;;;;;33.25;42.74;101396.66;5056759;28;20116;-64
2023/09/09 07:45:55;;;;;;;9.13;5.72;;;;;;;33.40;42.53;101395.94;5073717;28;20036;-65
2023/09/09 07:48:23;;;;;;;10.35;5.65;;;;;;;33.59;41.87;101397.22;5073610;28;20039;-66
2023/09/09 07:50:50;;;;;;;14.10;7.07;;;;;;;33.79;41.13;101397.34;5057185;28;20479;-67
2023/09/09 07:53:15;;;;;;;15.10;7.07;;;;;;;33.99;41.25;101399.41;5073878;28;20032;-67
2023/09/09 07:55:41;;;;;;;13.57;6.88;;;;;;;34.16;40.93;101402.88;5074718;28;20025;-67
2023/09/09 07:58:07;;;;;;;14.13;6.88;;;;;;;34.32;41.21;101396.25;5073761;28;20036;-65
2023/09/09 08:00:33;;;;;;;13.60;7.97;;;;;;;34.47;40.44;101398.25;5074712;28;20471;-66
2023/09/09 08:02:59;;;;;;;15.18;6.75;;;;;;;34.62;40.56;101398.31;5073419;28;20028;-66
2023/09/09 08:05:24;;;;;;;20.58;8.48;;;;;;;34.78;40.98;101405.59;5074745;28;20031;-67
2023/09/09 08:07:49;;;;;;;13.55;8.82;;;;;;;34.95;40.41;101399.78;5073412;28;20036;-66
2023/09/09 08:10:16;;;;;;;16.75;7.57;;;;;;;35.11;40.81;101409.00;5073075;28;20029;-66
2023/09/09 08:12:41;;;;;;;12.05;8.85;;;;;;;35.29;40.11;101405.69;5073138;28;20056;-66
2023/09/09 08:15:08;;;;;;;14.27;8.88;;;;;;;35.48;39.51;101404.81;5074527;28;20449;-66
2023/09/09 08:17:34;;;;;;;22.60;8.77;;;;;;;35.64;39.17;101409.28;5073309;28;20056;-66
2023/09/09 08:19:59;;;;;;;10.43;8.68;;;;;;;35.80;39.34;101401.72;5072733;28;20055;-66
2023/09/09 08:22:28;;;;;;;17.10;9.80;;;;;;;35.98;39.12;101408.66;5074383;28;20036;-66
2023/09/09 08:24:55;;;;;;;17.35;10.93;;;;;;;36.12;38.97;101410.59;5056681;28;20025;-66
2023/09/09 08:27:20;;;;;;;17.40;9.25;;;;;;;36.27;39.16;101414.44;5073148;28;20553;-67
2023/09/09 08:29:45;;;;;;;17.20;10.35;;;;;;;36.44;39.03;101412.09;5073043;28;20028;-67
2023/09/09 08:32:11;;;;;;;23.63;11.13;;;;;;;36.55;38.82;101422.13;5072819;28;20032;-67
2023/09/09 08:34:37;;;;;;;15.50;10.88;;;;;;;36.67;38.98;101417.03;5072821;28;20032;-67
2023/09/09 08:37:02;;;;;;;19.55;12.27;;;;;;;36.79;38.35;101423.13;5074215;28;20050;-67
2023/09/09 08:39:28;;;;;;;19.88;12.77;;;;;;;36.85;37.72;101430.34;5072098;28;20024;-66
2023/09/09 08:42:02;;;;;;;26.77;13.63;;;;;;;36.93;38.55;101426.94;5056056;28;20052;-66
2023/09/09 08:44:35;;;;;;;20.00;13.55;;;;;;;37.07;38.27;101422.38;5072598;28;20456;-66
2023/09/09 08:47:00;;;;;;;16.95;11.95;;;;;;;37.22;38.02;101421.41;5073539;28;20396;-66
2023/09/09 08:49:28;;;;;;;23.52;12.85;;;;;;;37.39;37.58;101419.03;5072428;28;20028;-67
2023/09/09 08:51:58;;;;;;;23.98;14.52;;;;;;;37.58;37.84;101421.97;5072621;28;20037;-66
2023/09/09 08:54:25;;;;;;;23.52;15.43;;;;;;;37.71;36.96;101419.31;5072827;28;20048;-65
2023/09/09 08:56:51;;;;;;;23.98;15.48;;;;;;;37.84;37.40;101420.56;5056071;28;20033;-66
2023/09/09 08:59:16;;;;;;;20.13;15.13;;;;;;;37.98;37.54;101415.97;5072346;28;20498;-67
2023/09/09 09:01:42;;;;;;;22.88;15.27;;;;;;;38.14;37.29;101431.44;5072400;28;20123;-65
2023/09/09 09:04:08;;;;;;;32.58;17.08;;;;;;;38.28;36.72;101421.19;5073602;28;20085;-66
2023/09/09 09:06:34;;;;;;;28.70;17.02;;;;;;;38.46;36.56;101428.00;5073613;28;20025;-66
2023/09/09 09:08:59;;;;;;;23.55;14.52;;;;;;;38.61;36.67;101430.59;5073311;28;20029;-66
2023/09/09 09:11:25;;;;;;;26.02;16.05;;;;;;;38.77;37.00;101428.44;5073123;28;20412;-65
2023/09/09 09:13:51;;;;;;;34.92;17.75;;;;;;;38.84;35.93;101423.25;5072170;28;20028;-68
2023/09/09 09:16:18;;;;;;;27.67;17.52;;;;;;;38.93;35.81;101427.06;5072052;28;20043;-65
2023/09/09 09:18:43;;;;;;;25.50;18.23;;;;;;;39.00;35.78;101428.34;5071990;28;20039;-67
2023/09/09 09:21:09;;;;;;;27.15;20.25;;;;;;;39.13;36.26;101423.94;5073035;28;20049;-66
2023/09/09 09:23:45;;;;;;;30.83;17.65;;;;;;;39.28;35.71;101423.69;5071982;28;20036;-66
2023/09/09 09:26:23;;;;;;;27.23;19.75;;;;;;;39.50;35.64;101426.69;5071828;28;20099;-67
2023/09/09 09:28:49;;;;;;;24.95;17.55;;;;;;;39.64;35.68;101414.69;5073081;28;20070;-66
2023/09/09 09:31:25;;;;;;;26.30;18.15;;;;;;;39.86;34.98;101423.25;5072960;28;20028;-65
2023/09/09 09:33:51;;;;;;;23.83;16.88;;;;;;;39.94;34.30;101416.91;5071794;28;20032;-67
2023/09/09 09:36:19;;;;;;;26.48;16.33;;;;;;;40.20;34.62;101412.47;5055198;28;20032;-66
2023/09/09 09:38:44;;;;;;;26.13;16.52;;;;;;;40.61;34.16;101413.28;5055196;28;20035;-67
2023/09/09 09:41:10;;;;;;;25.10;18.02;;;;;;;41.23;33.64;101413.47;5071716;28;20021;-68
2023/09/09 09:43:36;;;;;;;22.80;16.00;;;;;;;42.27;32.49;101410.91;5071602;28;20029;-67
2023/09/09 09:46:14;;;;;;;24.23;16.70;;;;;;;44.34;30.20;101419.97;5055059;28;20032;-66
2023/09/09 09:48:39;;;;;;;23.23;17.05;;;;;;;44.42;29.80;101413.47;5072874;28;20137;-68
2023/09/09 09:51:04;;;;;;;26.92;18.52;;;;;;;43.91;30.47;101421.03;5072051;28;20483;-66
2023/09/09 09:53:30;;;;;;;25.85;16.98;;;;;;;43.57;30.77;101412.63;5072493;28;20017;-66
2023/09/09 09:55:56;;;;;;;20.70;13.23;;;;;;;43.41;30.57;101417.16;5072651;28;20115;-67
2023/09/09 09:58:22;;;;;;;19.98;15.73;;;;;;;43.38;30.58;101418.69;5071722;28;20021;-68
2023/09/09 10:00:50;;;;;;;22.80;17.00;;;;;;;43.41;30.37;101418.00;5054815;28;20013;-67
2023/09/09 10:03:17;;;;;;;18.73;13.85;;;;;;;43.50;30.10;101403.03;5071683;28;20505;-66
2023/09/09 10:05:45;;;;;;;19.92;13.60;;;;;;;43.60;30.18;101409.13;5071503;28;20032;-67
2023/09/09 10:08:19;;;;;;;17.23;12.45;;;;;;;43.72;29.83;101409.28;5054742;28;20020;-67
2023/09/09 10:11:01;;;;;;;17.55;12.55;;;;;;;43.99;29.27;101400.38;5072685;28;20037;-67
2023/09/09 10:13:27;;;;;;;;;;;;;;;44.30;29.64;101400.06;5071589;28;20064;-67
2023/09/09 10:15:54;;;;;;;13.45;10.30;;;;;;;44.49;29.01;101396.75;5070771;28;19966;-67
2023/09/09 10:18:20;;;;;;;18.10;10.90;;;;;;;44.75;29.14;101400.25;5071420;28;20036;-67
2023/09/09 10:20:46;;;;;;;14.80;11.63;;;;;;;44.94;29.04;101408.28;5071229;28;20032;-67
2023/09/09 10:23:12;;;;;;;27.30;13.07;;;;;;;45.08;28.47;101409.63;5071545;28;20372;-67
2023/09/09 10:25:38;;;;;;;18.90;10.93;;;;;;;45.26;28.23;101409.47;5071116;28;20407;-67
2023/09/09 10:28:05;;;;;;;25.15;13.77;;;;;;;45.39;27.64;101409.19;5072698;28;20043;-68
2023/09/09 10:30:31;;;;;;;19.23;12.57;;;;;;;45.55;27.76;101412.16;5072360;28;20500;-66
2023/09/09 10:33:01;;;;;;;18.08;13.73;;;;;;;45.64;28.00;101398.72;5071100;28;20168;-67
2023/09/09 10:35:27;;;;;;;14.80;10.93;;;;;;;45.76;27.77;101398.78;5071156;28;20197;-67
2023/09/09 10:37:53;;;;;;;14.90;9.07;;;;;;;45.94;27.12;101403.03;5071228;28;20505;-68
2023/09/09 10:40:20;;;;;;;10.32;8.15;;;;;;;46.09;26.64;101404.38;5070521;28;20435;-67
2023/09/09 10:42:46;;;;;;;12.55;8.65;;;;;;;46.20;26.87;101395.03;5071553;28;20035;-66
2023/09/09 10:45:24;;;;;;;14.63;7.00;;;;;;;46.34;26.69;101399.50;5054540;28;20025;-63
2023/09/09 10:47:59;;;;;;;12.20;6.93;;;;;;;46.41;26.50;101411.09;5070948;28;20036;-63
2023/09/09 10:50:43;;;;;;;11.52;9.88;;;;;;;46.49;26.46;101395.97;5072262;28;20037;-63
2023/09/09 10:53:30;;;;;;;12.93;8.70;;;;;;;46.50;25.97;101397.59;5070944;28;20519;-62
2023/09/09 10:56:00;;;;;;;10.13;7.47;;;;;;;46.48;25.86;101388.63;5071912;28;20033;-62
2023/09/09 10:58:33;;;;;;;10.25;7.97;;;;;;;46.51;25.54;101393.59;5071283;28;20105;-62
2023/09/09 11:00:59;;;;;;;16.30;7.55;;;;;;;46.54;25.52;101390.88;5071410;28;20031;-62
2023/09/09 11:03:28;;;;;;;11.38;7.15;;;;;;;46.64;25.32;101395.19;5075216;28;20032;-64
2023/09/09 11:06:03;;;;;;;11.75;6.50;;;;;;;46.73;25.43;101395.88;5074594;28;20033;-63
2023/09/09 11:08:41;;;;;;;12.73;6.88;;;;;;;46.78;24.79;101395.66;5075711;28;20035;-62
2023/09/09 11:11:11;;;;;;;10.43;5.43;;;;;;;46.77;24.95;101397.66;5074944;28;20021;-62
2023/09/09 11:14:03;;;;;;;10.00;6.28;;;;;;;46.86;24.67;101400.34;5074597;28;20110;-62
2023/09/09 11:16:34;;;;;;;10.05;7.32;;;;;;;46.94;24.65;101396.53;5068811;28;20509;-63